Time;durP1;ratioP1;P1;durP2;ratioP2;P2;SDS_P1;SDS_P2;PMS_P1;PMS_P2;Temp;Humidity;BMP_temperature;BMP_pressure;BME280_temperature;BME280_humidity;BME280_pressure;Samples;Min_cycle;Max_cycle;Signal;HPM_P1;HPM_P2
2022/09/20 00:01:26;;;;;;;2.85;0.90;;;9.40;99.90;;;;;;5102776;28;20051;-73
2022/09/20 00:03:56;;;;;;;4.95;1.27;;;9.40;99.90;;;;;;5112554;28;20036;-73
2022/09/20 00:06:26;;;;;;;6.60;1.60;;;9.30;99.90;;;;;;5093681;28;20078;-73
2022/09/20 00:08:52;;;;;;;5.18;1.13;;;9.30;99.90;;;;;;5107328;28;20032;-72
2022/09/20 00:11:20;;;;;;;6.57;1.13;;;9.30;99.90;;;;;;5104539;28;20046;-72
2022/09/20 00:13:47;;;;;;;5.28;1.23;;;9.30;99.90;;;;;;5108300;28;20035;-73
2022/09/20 00:16:16;;;;;;;5.50;1.05;;;9.30;99.90;;;;;;5102724;28;20120;-73
2022/09/20 00:18:41;;;;;;;11.57;1.70;;;9.30;99.90;;;;;;5090962;28;20067;-72
2022/09/20 00:21:14;;;;;;;8.40;1.20;;;9.20;99.90;;;;;;5105697;28;20063;-72
2022/09/20 00:23:39;;;;;;;7.50;1.10;;;9.20;99.90;;;;;;5108238;28;20055;-71
2022/09/20 00:26:05;;;;;;;6.47;1.20;;;9.20;99.90;;;;;;5109111;28;20413;-72
2022/09/20 00:28:31;;;;;;;4.28;0.95;;;9.20;99.90;;;;;;5111336;28;20067;-72
2022/09/20 00:30:56;;;;;;;4.68;0.98;;;9.10;99.90;;;;;;5102567;28;20096;-73
2022/09/20 00:33:25;;;;;;;6.20;1.02;;;9.10;99.90;;;;;;5108881;28;20036;-72
2022/09/20 00:35:50;;;;;;;5.47;1.10;;;9.10;99.90;;;;;;5101749;28;20036;-72
2022/09/20 00:38:16;;;;;;;5.32;1.00;;;9.00;99.90;;;;;;5103031;28;20051;-72
2022/09/20 00:40:43;;;;;;;5.75;1.27;;;9.00;99.90;;;;;;5098180;28;20109;-72
2022/09/20 00:43:17;;;;;;;5.13;1.10;;;9.00;99.90;;;;;;5104531;28;20043;-72
2022/09/20 00:45:47;;;;;;;6.80;1.50;;;9.00;99.90;;;;;;5109631;28;20459;-72
2022/09/20 00:48:32;;;;;;;6.10;1.23;;;9.00;99.90;;;;;;5104993;28;20043;-73
2022/09/20 00:51:09;;;;;;;5.20;1.10;;;8.90;99.90;;;;;;5101985;28;20036;-72
2022/09/20 00:53:43;;;;;;;8.93;1.40;;;8.90;99.90;;;;;;5103649;28;20043;-72
2022/09/20 00:56:14;;;;;;;6.15;1.17;;;8.80;99.90;;;;;;5104937;28;20127;-72
2022/09/20 00:58:45;;;;;;;7.85;1.80;;;8.90;99.90;;;;;;5106584;28;20062;-72
2022/09/20 01:01:12;;;;;;;5.30;1.00;;;8.90;99.90;;;;;;5103836;28;20074;-72
2022/09/20 01:03:40;;;;;;;4.35;1.00;;;8.90;99.90;;;;;;5106767;28;20509;-73
2022/09/20 01:06:10;;;;;;;6.07;1.00;;;8.80;99.90;;;;;;5091836;28;20043;-74
2022/09/20 01:08:37;;;;;;;8.63;1.42;;;8.90;99.90;;;;;;5081354;28;20044;-73
2022/09/20 01:11:03;;;;;;;7.72;1.02;;;8.80;99.90;;;;;;5109025;28;20573;-74
2022/09/20 01:13:29;;;;;;;4.28;1.23;;;8.80;99.90;;;;;;5101205;28;20099;-74
2022/09/20 01:15:59;;;;;;;6.03;1.23;;;8.80;99.90;;;;;;5101548;28;20123;-73
2022/09/20 01:18:26;;;;;;;6.05;1.13;;;8.70;99.90;;;;;;5109760;28;20035;-74
2022/09/20 01:20:53;;;;;;;4.72;1.00;;;8.70;99.90;;;;;;5106213;28;20035;-74
2022/09/20 01:23:53;;;;;;;5.70;1.08;;;8.60;99.90;;;;;;5105073;28;20071;-73
2022/09/20 01:26:41;;;;;;;5.05;1.00;;;8.60;99.90;;;;;;5102290;28;20036;-74
2022/09/20 01:29:38;;;;;;;4.43;1.02;;;8.50;99.90;;;;;;5103085;28;20071;-74
2022/09/20 01:32:11;;;;;;;5.57;1.02;;;8.40;99.90;;;;;;5082901;28;20035;-74
2022/09/20 01:34:44;;;;;;;6.25;1.00;;;8.40;99.90;;;;;;5104749;28;20046;-74
2022/09/20 01:37:23;;;;;;;6.53;0.90;;;8.30;99.90;;;;;;5105778;28;20054;-74
2022/09/20 01:40:10;;;;;;;4.53;1.23;;;8.30;99.90;;;;;;5109294;28;20294;-74
2022/09/20 01:42:44;;;;;;;4.40;1.10;;;8.20;99.90;;;;;;5106351;28;20118;-74
2022/09/20 01:45:28;;;;;;;3.78;0.90;;;8.20;99.90;;;;;;5103148;28;20036;-73
2022/09/20 01:48:15;;;;;;;3.78;1.00;;;8.20;99.90;;;;;;5102532;28;20481;-74
2022/09/20 01:50:50;;;;;;;6.82;1.00;;;8.10;99.90;;;;;;5090304;28;20032;-74
2022/09/20 01:53:15;;;;;;;3.42;0.85;;;8.10;99.90;;;;;;5097238;28;20043;-74
2022/09/20 01:56:20;;;;;;;4.60;1.00;;;8.00;99.90;;;;;;5095001;28;20047;-74
2022/09/20 01:59:14;;;;;;;3.78;1.00;;;7.90;99.90;;;;;;5108463;28;20138;-74
2022/09/20 02:01:55;;;;;;;;;;;7.90;99.90;;;;;;5106201;28;20031;-74
2022/09/20 02:04:58;;;;;;;7.03;1.10;;;7.90;99.90;;;;;;5107634;28;20065;-74
2022/09/20 02:07:42;;;;;;;7.72;1.10;;;7.80;99.90;;;;;;5100230;28;20039;-73
2022/09/20 02:10:38;;;;;;;4.47;0.98;;;7.80;99.90;;;;;;5097781;28;20115;-74
2022/09/20 02:13:37;;;;;;;3.78;1.13;;;7.90;99.90;;;;;;5100538;28;20032;-73
2022/09/20 02:16:15;;;;;;;3.75;1.00;;;7.80;99.90;;;;;;5099920;28;20500;-73
2022/09/20 02:18:53;;;;;;;3.80;0.95;;;7.80;99.90;;;;;;5099404;28;20074;-73
2022/09/20 02:21:37;;;;;;;4.65;1.00;;;7.80;99.90;;;;;;5108982;28;20059;-73
2022/09/20 02:24:25;;;;;;;8.63;1.00;;;7.70;99.90;;;;;;5103026;28;20041;-73
2022/09/20 02:27:21;;;;;;;4.70;1.13;;;7.70;99.90;;;;;;5100129;28;20044;-73
2022/09/20 02:30:12;;;;;;;6.75;1.10;;;7.70;99.90;;;;;;5109012;28;20101;-74
2022/09/20 02:32:44;;;;;;;4.30;0.85;;;7.70;99.90;;;;;;5107521;28;20424;-73
2022/09/20 02:35:25;;;;;;;6.75;0.95;;;7.70;99.90;;;;;;5108524;28;20055;-74
2022/09/20 02:38:11;;;;;;;4.70;1.10;;;7.70;99.90;;;;;;5103766;28;20115;-73
2022/09/20 02:40:59;;;;;;;3.42;0.90;;;7.70;99.90;;;;;;5109565;28;20044;-74
2022/09/20 02:43:37;;;;;;;4.93;1.13;;;7.60;99.90;;;;;;5103474;28;20036;-74
2022/09/20 02:46:22;;;;;;;3.55;1.40;;;7.60;99.90;;;;;;5102210;28;20051;-74
2022/09/20 02:49:10;;;;;;;5.93;1.42;;;7.60;99.90;;;;;;5083757;28;20119;-74
2022/09/20 02:51:45;;;;;;;3.55;1.08;;;7.70;99.90;;;;;;5097769;28;20043;-74
2022/09/20 02:54:28;;;;;;;6.10;1.17;;;7.70;99.90;;;;;;5103769;28;20123;-73
2022/09/20 02:57:03;;;;;;;6.88;1.13;;;7.70;99.90;;;;;;5094228;28;20068;-74
2022/09/20 02:59:40;;;;;;;3.20;1.02;;;7.70;99.90;;;;;;5103820;28;20040;-74
2022/09/20 03:02:12;;;;;;;6.60;1.17;;;7.60;99.90;;;;;;5101620;28;20047;-74
2022/09/20 03:04:48;;;;;;;6.68;1.00;;;7.60;99.90;;;;;;5099935;28;20055;-74
2022/09/20 03:07:50;;;;;;;5.53;1.95;;;7.60;99.90;;;;;;5105659;28;20113;-74
2022/09/20 03:10:36;;;;;;;3.50;1.15;;;7.60;99.90;;;;;;5101638;28;20047;-74
2022/09/20 03:13:01;;;;;;;4.05;0.88;;;7.60;99.90;;;;;;5109562;28;20046;-74
2022/09/20 03:15:48;;;;;;;6.43;0.93;;;7.60;99.90;;;;;;5099058;28;20123;-74
2022/09/20 03:18:28;;;;;;;4.05;1.00;;;7.60;99.90;;;;;;5115210;28;20040;-74
2022/09/20 03:21:10;;;;;;;3.53;0.95;;;7.60;99.90;;;;;;5108163;28;20089;-74
2022/09/20 03:23:50;;;;;;;4.55;1.50;;;7.60;99.90;;;;;;5104085;28;20032;-74
2022/09/20 03:26:35;;;;;;;3.80;1.10;;;7.50;99.90;;;;;;5099457;28;20087;-74
2022/09/20 03:29:46;;;;;;;3.53;0.73;;;7.50;99.90;;;;;;5101391;28;20793;-74
2022/09/20 03:32:25;;;;;;;3.67;0.90;;;7.50;99.90;;;;;;5085564;28;20040;-74
2022/09/20 03:35:20;;;;;;;3.17;1.02;;;7.50;99.90;;;;;;5123723;28;20051;-74
2022/09/20 03:38:00;;;;;;;9.23;1.33;;;7.50;99.90;;;;;;5109305;28;20036;-74
2022/09/20 03:40:50;;;;;;;6.72;1.40;;;7.60;99.90;;;;;;5111636;28;20042;-74
2022/09/20 03:43:46;;;;;;;4.35;1.15;;;7.60;99.90;;;;;;5103578;28;20046;-74
2022/09/20 03:46:33;;;;;;;6.80;1.25;;;7.70;99.90;;;;;;5083041;28;20504;-73
2022/09/20 03:49:23;;;;;;;9.05;1.40;;;7.80;99.90;;;;;;5101091;28;20493;-75
2022/09/20 03:52:25;;;;;;;5.70;1.00;;;7.90;99.90;;;;;;5111110;28;20273;-74
2022/09/20 03:55:41;;;;;;;5.28;1.08;;;8.00;99.90;;;;;;5111355;28;20532;-74
2022/09/20 03:58:32;;;;;;;4.13;1.13;;;8.10;99.90;;;;;;5104866;28;20044;-74
2022/09/20 04:01:09;;;;;;;3.90;1.10;;;8.20;99.90;;;;;;5107328;28;20047;-74
2022/09/20 04:03:37;;;;;;;3.72;0.90;;;8.20;99.90;;;;;;5103823;28;20032;-73
2022/09/20 04:06:35;;;;;;;6.22;1.17;;;8.40;99.90;;;;;;5109450;28;20035;-74
2022/09/20 04:09:07;;;;;;;5.63;1.73;;;8.50;99.90;;;;;;5104407;28;20035;-74
2022/09/20 04:11:40;;;;;;;3.80;1.25;;;8.70;99.90;;;;;;5109949;28;20069;-74
2022/09/20 04:14:17;;;;;;;5.80;1.15;;;8.70;99.90;;;;;;5108484;28;20043;-74
2022/09/20 04:17:16;;;;;;;5.70;1.20;;;8.80;99.90;;;;;;5105975;28;20207;-74
2022/09/20 04:19:51;;;;;;;6.40;1.35;;;8.90;99.90;;;;;;5106971;28;20488;-74
2022/09/20 04:22:21;;;;;;;4.43;1.10;;;8.90;99.90;;;;;;5108703;28;20081;-74
2022/09/20 04:25:18;;;;;;;5.20;1.10;;;8.90;99.90;;;;;;5096619;28;20039;-74
2022/09/20 04:27:53;;;;;;;5.03;1.15;;;8.90;99.90;;;;;;5104567;28;20590;-74
2022/09/20 04:30:28;;;;;;;2.53;0.80;;;8.90;99.90;;;;;;5111650;28;20126;-74
2022/09/20 04:33:05;;;;;;;5.38;1.17;;;8.90;99.90;;;;;;5109428;28;20447;-74
2022/09/20 04:38:31;;;;;;;3.33;0.90;;;8.90;99.90;;;;;;5100355;28;20074;-74
2022/09/20 04:41:37;;;;;;;3.60;1.05;;;8.90;99.90;;;;;;5103074;28;20032;-74
2022/09/20 04:44:28;;;;;;;2.88;0.90;;;8.90;99.90;;;;;;5105109;28;20080;-73
2022/09/20 04:47:12;;;;;;;5.15;1.30;;;8.80;99.90;;;;;;5111528;28;20062;-74
2022/09/20 04:49:43;;;;;;;6.55;1.55;;;8.80;99.90;;;;;;5090191;28;20410;-74
2022/09/20 04:52:46;;;;;;;3.97;0.98;;;8.80;99.90;;;;;;5097705;28;20504;-73
2022/09/20 04:55:47;;;;;;;6.15;1.20;;;8.70;99.90;;;;;;5111478;28;20489;-73
2022/09/20 04:58:45;;;;;;;3.58;1.20;;;8.70;99.90;;;;;;5104243;28;20031;-74
2022/09/20 05:01:18;;;;;;;3.35;0.90;;;8.70;99.90;;;;;;5103514;28;20101;-74
2022/09/20 05:04:02;;;;;;;7.15;1.33;;;8.70;99.90;;;;;;5096303;28;20046;-73
2022/09/20 05:06:57;;;;;;;5.03;1.23;;;8.80;99.90;;;;;;5100689;28;20044;-73
2022/09/20 05:09:44;;;;;;;6.55;1.17;;;8.70;99.90;;;;;;5099912;28;20051;-73
2022/09/20 05:12:47;;;;;;;4.10;1.30;;;8.70;99.90;;;;;;5104366;28;20051;-73
2022/09/20 05:15:22;;;;;;;8.60;1.25;;;8.80;99.90;;;;;;5099258;28;20040;-73
2022/09/20 05:18:33;;;;;;;7.57;1.30;;;8.80;99.90;;;;;;5100435;28;20040;-74
2022/09/20 05:21:36;;;;;;;6.13;1.13;;;8.80;99.90;;;;;;5101192;28;20127;-74
2022/09/20 05:24:24;;;;;;;4.60;1.27;;;8.80;99.90;;;;;;5118775;27;20058;-74
2022/09/20 05:27:15;;;;;;;3.75;1.10;;;8.90;99.90;;;;;;5111348;28;20044;-73
2022/09/20 05:29:50;;;;;;;1.60;0.90;;;8.90;99.90;;;;;;5108319;28;20504;-73
2022/09/20 05:32:44;;;;;;;3.22;1.00;;;8.90;99.90;;;;;;5109131;28;20516;-74
2022/09/20 05:35:21;;;;;;;3.00;1.10;;;9.00;99.90;;;;;;5085117;28;20386;-74
2022/09/20 05:38:22;;;;;;;4.30;1.30;;;9.10;99.90;;;;;;5106937;28;20047;-73
2022/09/20 05:41:19;;;;;;;6.53;1.23;;;9.10;99.90;;;;;;5108797;28;20031;-73
2022/09/20 05:44:14;;;;;;;2.72;1.08;;;9.20;99.90;;;;;;5104117;28;20096;-74
2022/09/20 05:46:59;;;;;;;4.32;1.73;;;9.30;99.90;;;;;;5100173;28;20035;-74
2022/09/20 05:50:01;;;;;;;4.28;1.20;;;9.30;99.90;;;;;;5104774;28;20059;-73
2022/09/20 05:52:42;;;;;;;3.78;1.30;;;9.30;99.90;;;;;;5103367;28;20089;-74
2022/09/20 05:55:39;;;;;;;5.00;1.20;;;9.40;99.90;;;;;;5097329;28;20043;-73
2022/09/20 05:58:30;;;;;;;4.45;1.33;;;9.40;99.90;;;;;;5094842;28;20089;-73
2022/09/20 06:01:32;;;;;;;5.47;1.65;;;9.40;99.90;;;;;;5093811;28;20038;-74
2022/09/20 06:04:23;;;;;;;6.75;1.30;;;9.40;99.90;;;;;;5097727;28;20057;-74
2022/09/20 06:07:24;;;;;;;5.97;1.38;;;9.40;99.90;;;;;;5091429;28;20568;-73
2022/09/20 06:10:19;;;;;;;4.85;1.48;;;9.40;99.90;;;;;;5092628;28;20104;-74
2022/09/20 06:13:08;;;;;;;4.82;1.30;;;9.30;99.90;;;;;;5104774;27;20044;-73
2022/09/20 06:15:58;;;;;;;7.60;2.00;;;9.30;99.90;;;;;;5095676;28;20119;-76
2022/09/20 06:18:37;;;;;;;3.33;1.20;;;9.30;99.90;;;;;;5096471;28;20040;-74
2022/09/20 06:21:27;;;;;;;5.20;1.65;;;9.30;99.90;;;;;;5073184;28;20044;-74
2022/09/20 06:23:59;;;;;;;8.25;1.60;;;9.40;99.90;;;;;;5101411;28;20089;-74
2022/09/20 06:26:29;;;;;;;3.65;1.20;;;9.40;99.90;;;;;;5095357;28;20085;-74
2022/09/20 06:29:05;;;;;;;7.93;1.52;;;9.50;99.90;;;;;;5092056;28;20558;-74
2022/09/20 06:31:31;;;;;;;6.85;1.50;;;9.60;99.90;;;;;;5096147;28;20336;-74
2022/09/20 06:34:03;;;;;;;5.60;1.60;;;9.60;99.90;;;;;;5105020;28;20035;-74
2022/09/20 06:42:20;;;;;;;8.32;1.52;;;10.10;99.90;;;;;;5087856;28;20040;-75
2022/09/20 06:44:46;;;;;;;4.43;1.17;;;10.30;99.90;;;;;;5096892;28;20151;-75
2022/09/20 06:47:15;;;;;;;6.43;1.20;;;10.40;99.90;;;;;;5104225;28;20057;-73
2022/09/20 06:49:41;;;;;;;5.63;1.10;;;10.50;99.90;;;;;;5097465;28;20032;-73
2022/09/20 06:52:11;;;;;;;3.80;0.90;;;10.50;99.90;;;;;;5100896;28;20081;-74
2022/09/20 06:54:37;;;;;;;6.28;1.05;;;10.60;99.90;;;;;;5102422;28;20040;-75
2022/09/20 06:57:05;;;;;;;4.57;1.20;;;10.60;99.90;;;;;;5109141;28;20047;-74
2022/09/20 06:59:31;;;;;;;5.88;1.23;;;10.70;99.90;;;;;;5104629;28;20031;-75
2022/09/20 07:01:56;;;;;;;6.35;1.02;;;10.70;99.90;;;;;;5099922;28;20035;-74
2022/09/20 07:04:23;;;;;;;5.43;1.13;;;10.70;99.90;;;;;;5109996;28;20043;-74
2022/09/20 07:06:49;;;;;;;2.92;1.10;;;10.70;99.90;;;;;;5102743;28;20127;-75
2022/09/20 07:09:14;;;;;;;4.70;1.20;;;10.70;99.90;;;;;;5101847;28;20128;-74
2022/09/20 07:11:40;;;;;;;6.88;1.40;;;10.70;99.90;;;;;;5090980;28;20039;-74
2022/09/20 07:14:06;;;;;;;5.55;1.40;;;10.80;99.90;;;;;;5095076;28;20448;-74
2022/09/20 07:16:34;;;;;;;5.28;1.15;;;10.80;99.90;;;;;;5110712;28;20082;-75
2022/09/20 07:19:00;;;;;;;4.28;1.15;;;10.90;99.90;;;;;;5111681;28;20160;-74
2022/09/20 07:21:26;;;;;;;5.93;1.40;;;10.90;99.90;;;;;;5098680;28;20115;-74
2022/09/20 07:23:52;;;;;;;5.85;1.48;;;10.90;99.90;;;;;;5076544;28;20125;-75
2022/09/20 07:26:25;;;;;;;5.22;1.10;;;11.00;99.90;;;;;;5092221;28;20097;-75
2022/09/20 07:28:51;;;;;;;3.15;1.00;;;11.10;99.90;;;;;;5097125;28;20122;-74
2022/09/20 07:31:18;;;;;;;7.78;1.88;;;11.20;99.90;;;;;;5092821;28;20126;-75
2022/09/20 07:33:43;;;;;;;5.05;1.40;;;11.30;99.90;;;;;;5111872;28;20050;-75
2022/09/20 07:36:11;;;;;;;4.30;1.00;;;11.30;99.90;;;;;;5114412;28;20051;-75
2022/09/20 07:38:37;;;;;;;8.68;1.08;;;11.40;99.90;;;;;;5109728;28;20055;-74
2022/09/20 07:41:03;;;;;;;4.05;1.02;;;11.40;99.90;;;;;;5095531;28;20047;-75
2022/09/20 07:43:29;;;;;;;4.15;1.00;;;11.40;99.90;;;;;;5093440;28;20036;-74
2022/09/20 07:45:56;;;;;;;6.38;1.20;;;11.40;99.90;;;;;;5096329;28;20054;-74
2022/09/20 07:48:24;;;;;;;5.20;1.13;;;11.50;99.90;;;;;;5098938;28;20051;-75
2022/09/20 07:51:01;;;;;;;5.38;1.02;;;11.70;99.90;;;;;;5107077;28;20042;-73
2022/09/20 07:53:27;;;;;;;6.15;1.00;;;11.90;99.90;;;;;;5107012;28;20043;-75
2022/09/20 07:56:01;;;;;;;4.55;1.10;;;12.00;99.90;;;;;;5103759;28;20054;-75
2022/09/20 07:58:29;;;;;;;8.75;1.48;;;12.20;99.90;;;;;;5109745;28;20036;-75
2022/09/20 08:00:59;;;;;;;2.75;1.10;;;12.30;99.90;;;;;;5082928;28;20123;-75
2022/09/20 08:03:25;;;;;;;8.23;1.48;;;12.50;99.90;;;;;;5092205;28;20156;-75
2022/09/20 08:05:57;;;;;;;5.50;1.23;;;12.50;99.90;;;;;;5099261;28;20032;-74
2022/09/20 08:08:23;;;;;;;4.80;1.05;;;12.60;99.90;;;;;;5091457;28;20043;-75
2022/09/20 08:10:49;;;;;;;4.72;1.02;;;12.60;99.90;;;;;;5090749;28;20040;-75
2022/09/20 08:13:15;;;;;;;4.72;1.27;;;12.60;99.90;;;;;;5103973;28;20035;-74
2022/09/20 08:15:41;;;;;;;6.10;1.30;;;12.70;99.90;;;;;;5094060;28;20633;-74
2022/09/20 08:18:08;;;;;;;4.72;0.80;;;12.90;99.90;;;;;;5093849;28;20032;-74
2022/09/20 08:20:39;;;;;;;4.72;1.05;;;13.00;99.90;;;;;;5100757;28;20043;-75
2022/09/20 08:23:05;;;;;;;5.60;1.20;;;13.10;99.90;;;;;;5095475;28;20032;-76
2022/09/20 08:25:32;;;;;;;6.60;1.17;;;13.20;99.90;;;;;;5097245;27;20035;-75
2022/09/20 08:27:57;;;;;;;5.05;1.25;;;13.20;99.90;;;;;;5096715;27;20043;-75
2022/09/20 08:30:23;;;;;;;4.45;0.80;;;13.30;99.90;;;;;;5095665;28;20040;-75
2022/09/20 08:32:48;;;;;;;11.88;1.50;;;13.40;99.90;;;;;;5083960;28;20035;-75
2022/09/20 08:35:14;;;;;;;3.25;0.70;;;13.50;99.90;;;;;;5096681;28;20036;-76
2022/09/20 08:37:42;;;;;;;6.10;0.90;;;13.60;99.90;;;;;;5099689;27;20043;-75
2022/09/20 08:40:11;;;;;;;5.18;1.17;;;13.70;99.90;;;;;;5093476;28;20040;-76
2022/09/20 08:42:38;;;;;;;3.65;0.77;;;13.70;99.90;;;;;;5094975;28;20409;-75
2022/09/20 08:45:17;;;;;;;4.70;0.80;;;13.70;99.90;;;;;;5098928;28;20051;-75
2022/09/20 08:48:04;;;;;;;5.22;1.10;;;13.80;99.90;;;;;;5103342;28;20403;-75
2022/09/20 08:50:33;;;;;;;4.40;0.70;;;13.90;99.90;;;;;;5093416;28;20043;-75
2022/09/20 08:53:03;;;;;;;5.75;1.10;;;14.00;99.90;;;;;;5100752;28;20047;-76
2022/09/20 08:55:34;;;;;;;5.13;1.02;;;14.10;99.90;;;;;;5090629;28;20157;-75
2022/09/20 08:58:01;;;;;;;5.72;1.00;;;14.20;99.90;;;;;;5092466;28;20434;-75
2022/09/20 09:00:33;;;;;;;5.93;0.90;;;14.40;99.90;;;;;;5090125;28;20047;-75
2022/09/20 09:03:04;;;;;;;7.57;1.38;;;14.70;99.90;;;;;;5091042;28;20032;-75
2022/09/20 09:05:52;;;;;;;7.20;1.00;;;14.70;99.90;;;;;;5091153;28;20039;-75
2022/09/20 09:08:29;;;;;;;4.65;0.75;;;14.80;99.90;;;;;;5091490;28;20032;-75
2022/09/20 09:11:07;;;;;;;3.65;0.70;;;14.60;99.90;;;;;;5091064;28;20061;-76
2022/09/20 09:13:51;;;;;;;6.65;0.93;;;14.60;99.90;;;;;;5091098;28;20044;-75
2022/09/20 09:16:18;;;;;;;5.85;0.75;;;14.60;99.90;;;;;;5090942;28;20036;-75
2022/09/20 09:18:45;;;;;;;5.68;0.82;;;14.60;99.90;;;;;;5091178;28;20032;-75
2022/09/20 09:21:28;;;;;;;3.30;0.90;;;14.70;99.90;;;;;;5090692;28;20498;-76
2022/09/20 09:24:00;;;;;;;6.05;1.20;;;14.80;99.90;;;;;;5090903;28;20082;-76
2022/09/20 09:26:26;;;;;;;5.18;0.77;;;14.80;99.90;;;;;;5090784;28;20075;-76
2022/09/20 09:29:17;;;;;;;3.45;0.70;;;14.90;99.90;;;;;;5091020;28;20040;-75
2022/09/20 09:31:45;;;;;;;4.38;0.93;;;15.00;99.90;;;;;;5090983;28;20071;-76
2022/09/20 09:34:37;;;;;;;3.83;0.98;;;15.20;99.90;;;;;;5091010;28;20044;-75
2022/09/20 09:37:03;;;;;;;4.07;0.90;;;15.30;99.90;;;;;;5087911;28;20059;-76
2022/09/20 09:39:31;;;;;;;3.90;0.80;;;15.50;99.90;;;;;;5071123;28;20485;-76
2022/09/20 09:41:59;;;;;;;4.47;0.80;;;15.70;99.90;;;;;;5088016;28;20028;-76
2022/09/20 09:44:29;;;;;;;7.15;0.70;;;15.80;99.90;;;;;;5088301;28;20036;-76
2022/09/20 09:46:56;;;;;;;8.70;1.20;;;15.90;99.90;;;;;;5088204;28;20387;-76
2022/09/20 09:49:23;;;;;;;4.43;0.68;;;15.80;99.90;;;;;;5088560;28;20485;-76
2022/09/20 09:51:54;;;;;;;6.80;0.80;;;15.70;99.90;;;;;;5092286;28;20518;-76
2022/09/20 09:54:24;;;;;;;3.20;0.80;;;15.60;99.90;;;;;;5110532;28;20067;-75
2022/09/20 09:57:14;;;;;;;8.07;1.25;;;15.60;99.90;;;;;;5110537;28;20500;-76
2022/09/20 09:59:48;;;;;;;4.28;0.60;;;15.50;99.90;;;;;;5110544;28;20036;-76
2022/09/20 10:02:47;;;;;;;2.65;0.60;;;15.40;99.90;;;;;;5094397;28;20303;-75
2022/09/20 10:05:21;;;;;;;5.65;0.80;;;15.40;99.90;;;;;;5090446;28;20055;-76
2022/09/20 10:07:55;;;;;;;3.22;0.70;;;15.40;99.90;;;;;;5089266;28;20157;-76
2022/09/20 10:10:30;;;;;;;4.47;0.80;;;15.40;99.90;;;;;;5073756;28;20473;-76
2022/09/20 10:13:16;;;;;;;2.35;0.70;;;15.20;99.90;;;;;;5090390;28;20074;-76
2022/09/20 10:16:00;;;;;;;3.70;0.98;;;15.30;99.90;;;;;;5090243;28;20036;-76
2022/09/20 10:18:57;;;;;;;2.45;0.65;;;15.30;99.90;;;;;;5090465;28;20039;-76
2022/09/20 10:21:31;;;;;;;4.68;1.00;;;15.30;99.90;;;;;;5073201;28;20047;-76
2022/09/20 10:24:09;;;;;;;5.90;0.80;;;15.30;99.90;;;;;;5090279;28;20277;-75
2022/09/20 10:27:12;;;;;;;5.10;0.73;;;15.30;99.90;;;;;;5090248;28;20369;-76
2022/09/20 10:29:48;;;;;;;3.87;0.97;;;15.40;99.90;;;;;;5098451;28;20051;-77
2022/09/20 10:32:38;;;;;;;2.33;0.60;;;15.40;99.90;;;;;;5102702;28;20613;-76
2022/09/20 10:35:04;;;;;;;7.65;0.98;;;15.40;99.90;;;;;;5090851;28;20350;-76
2022/09/20 10:37:43;;;;;;;5.63;0.80;;;15.50;99.90;;;;;;5102727;27;20051;-76
2022/09/20 10:43:40;;;;;;;4.55;0.70;;;15.70;99.90;;;;;;5088947;28;20092;-76
2022/09/20 10:46:26;;;;;;;4.80;0.90;;;15.60;99.90;;;;;;5110028;28;20435;-76
2022/09/20 10:49:03;;;;;;;3.08;0.60;;;15.60;99.90;;;;;;5070196;28;20403;-75
2022/09/20 10:52:01;;;;;;;4.93;1.02;;;15.60;99.90;;;;;;5101646;28;20039;-76
2022/09/20 10:54:52;;;;;;;4.43;0.93;;;15.80;99.90;;;;;;5102972;28;20051;-76
2022/09/20 10:58:00;;;;;;;5.32;0.90;;;16.00;99.90;;;;;;5109271;28;20043;-76
2022/09/20 11:01:10;;;;;;;3.13;1.10;;;16.30;99.90;;;;;;5113969;28;20043;-76
2022/09/20 11:03:54;;;;;;;2.45;0.80;;;16.30;99.90;;;;;;5055499;28;20485;-75
2022/09/20 11:06:42;;;;;;;4.40;0.88;;;16.50;99.90;;;;;;5095532;28;20134;-76
2022/09/20 11:09:12;;;;;;;6.35;0.82;;;16.60;99.90;;;;;;5113308;28;20051;-75
2022/09/20 11:11:46;;;;;;;7.18;0.82;;;16.60;99.90;;;;;;5111764;28;20039;-76
2022/09/20 11:14:27;;;;;;;3.95;0.82;;;16.40;99.90;;;;;;5097164;28;20040;-76
2022/09/20 11:17:07;;;;;;;5.18;1.02;;;16.20;99.90;;;;;;5103919;28;20036;-75
2022/09/20 11:20:15;;;;;;;5.50;0.93;;;16.10;99.90;;;;;;5107955;28;20047;-76
2022/09/20 11:23:09;;;;;;;7.32;1.27;;;15.90;99.90;;;;;;5105161;28;20047;-77
2022/09/20 11:25:43;;;;;;;5.53;0.80;;;15.90;99.90;;;;;;5105247;28;20043;-75
2022/09/20 11:28:40;;;;;;;5.65;0.90;;;15.90;99.90;;;;;;5105221;28;20044;-75
2022/09/20 11:31:24;;;;;;;4.55;0.82;;;15.90;99.90;;;;;;5099733;28;20044;-76
2022/09/20 11:33:59;;;;;;;7.00;0.93;;;15.90;99.90;;;;;;5112507;27;20043;-76
2022/09/20 11:36:30;;;;;;;2.47;0.80;;;16.20;99.90;;;;;;5106079;28;20443;-76
2022/09/20 11:39:04;;;;;;;6.18;1.10;;;16.50;99.90;;;;;;5097762;28;20504;-76
2022/09/20 11:41:30;;;;;;;4.63;1.00;;;16.90;99.90;;;;;;5105253;28;20664;-76
2022/09/20 11:44:06;;;;;;;3.25;0.80;;;17.10;99.90;;;;;;5103733;28;20042;-76
2022/09/20 11:46:59;;;;;;;4.88;1.13;;;17.00;99.90;;;;;;5103055;28;20080;-76
2022/09/20 11:49:54;;;;;;;3.63;1.17;;;16.90;99.90;;;;;;5109137;28;20058;-76
2022/09/20 11:52:40;;;;;;;3.65;0.82;;;17.10;99.90;;;;;;5105438;28;20085;-76
2022/09/20 11:55:12;;;;;;;4.55;0.90;;;17.50;99.90;;;;;;5097877;28;20523;-77
2022/09/20 11:57:38;;;;;;;2.95;0.63;;;17.80;99.90;;;;;;5107459;28;20680;-76
2022/09/20 12:00:07;;;;;;;4.13;0.90;;;18.00;97.40;;;;;;5093015;28;20035;-75
2022/09/20 12:02:52;;;;;;;2.40;0.60;;;18.20;99.90;;;;;;5075334;28;20036;-76
2022/09/20 12:05:37;;;;;;;4.32;0.77;;;18.30;96.60;;;;;;5092808;28;20551;-76
2022/09/20 12:08:18;;;;;;;2.15;0.50;;;18.50;97.70;;;;;;5076022;28;20043;-75
2022/09/20 12:10:55;;;;;;;6.18;0.73;;;18.70;98.70;;;;;;5092940;28;20096;-75
2022/09/20 12:13:24;;;;;;;6.45;0.93;;;18.90;98.20;;;;;;5101694;28;20035;-76
2022/09/20 12:16:34;;;;;;;4.15;0.68;;;18.80;96.70;;;;;;5113285;28;20093;-75
2022/09/20 12:19:04;;;;;;;3.00;0.68;;;19.10;95.90;;;;;;5092692;28;20032;-75
2022/09/20 12:21:29;;;;;;;4.80;0.70;;;19.40;97.50;;;;;;5092544;28;20039;-75
2022/09/20 12:23:55;;;;;;;6.90;0.90;;;19.90;98.30;;;;;;5098596;28;20413;-76
2022/09/20 12:26:21;;;;;;;2.88;0.80;;;20.00;98.50;;;;;;5112988;28;20131;-75
2022/09/20 12:28:49;;;;;;;3.42;0.70;;;19.70;98.90;;;;;;5111730;28;20046;-75
2022/09/20 12:31:20;;;;;;;3.38;0.65;;;19.20;98.60;;;;;;5108787;28;20039;-75
2022/09/20 12:34:12;;;;;;;2.60;0.77;;;18.80;99.10;;;;;;5089995;28;20099;-75
2022/09/20 12:37:03;;;;;;;4.35;0.73;;;18.60;99.00;;;;;;5113010;28;20036;-75
2022/09/20 12:39:35;;;;;;;4.43;1.00;;;18.90;99.60;;;;;;5111458;28;20441;-76
2022/09/20 12:42:26;;;;;;;6.22;1.23;;;19.20;99.80;;;;;;5104152;28;20082;-75
2022/09/20 12:45:14;;;;;;;5.30;0.80;;;19.50;99.90;;;;;;5110837;28;20118;-75
2022/09/20 12:47:53;;;;;;;5.07;0.95;;;19.90;99.60;;;;;;5105686;28;20188;-76
2022/09/20 12:53:12;;;;;;;2.15;0.60;;;20.00;98.80;;;;;;5110348;28;20048;-75
2022/09/20 12:55:53;;;;;;;6.57;0.80;;;19.70;97.30;;;;;;5099046;28;20049;-75
2022/09/20 12:58:32;;;;;;;3.00;0.63;;;19.50;97.00;;;;;;5092735;28;20084;-75
2022/09/20 13:01:03;;;;;;;5.43;0.60;;;19.10;97.80;;;;;;5108848;28;20040;-76
2022/09/20 13:03:45;;;;;;;2.85;0.77;;;18.50;96.80;;;;;;5112717;28;20036;-75
2022/09/20 13:06:15;;;;;;;4.93;0.82;;;18.00;95.50;;;;;;5092303;28;20043;-75
2022/09/20 13:09:06;;;;;;;3.38;0.65;;;17.70;97.60;;;;;;5103558;28;20074;-76
2022/09/20 13:11:53;;;;;;;3.28;0.50;;;17.60;98.20;;;;;;5107903;28;20143;-75
2022/09/20 13:14:24;;;;;;;3.40;0.75;;;17.20;96.60;;;;;;5077532;28;20055;-76
2022/09/20 13:16:53;;;;;;;3.72;0.70;;;17.00;98.20;;;;;;5121294;27;20035;-76
2022/09/20 13:19:27;;;;;;;3.97;0.75;;;17.20;98.10;;;;;;5107412;28;20039;-75
2022/09/20 13:22:27;;;;;;;2.10;0.50;;;17.40;97.30;;;;;;5106763;28;20039;-75
2022/09/20 13:24:57;;;;;;;2.28;0.60;;;17.80;96.50;;;;;;5090480;28;20051;-75
2022/09/20 13:27:24;;;;;;;5.30;0.98;;;18.10;97.70;;;;;;5107219;28;20551;-75
2022/09/20 13:29:52;;;;;;;3.03;0.82;;;18.50;97.00;;;;;;5106970;28;20038;-75
2022/09/20 13:32:26;;;;;;;4.43;1.08;;;18.90;98.10;;;;;;5100875;28;20100;-75
2022/09/20 13:35:05;;;;;;;3.03;0.90;;;18.70;98.40;;;;;;5112231;28;20504;-75
2022/09/20 13:37:32;;;;;;;6.75;0.80;;;18.60;98.50;;;;;;5098056;28;20098;-75
2022/09/20 13:39:58;;;;;;;4.95;0.90;;;18.80;99.10;;;;;;5109253;28;20043;-74
2022/09/20 13:42:28;;;;;;;7.03;1.02;;;19.00;99.30;;;;;;5097125;28;20050;-75
2022/09/20 13:44:53;;;;;;;7.32;0.77;;;19.00;98.80;;;;;;5101911;27;20039;-75
2022/09/20 13:47:27;;;;;;;4.47;0.90;;;18.90;99.60;;;;;;5100692;27;20043;-75
2022/09/20 13:50:07;;;;;;;6.07;0.88;;;19.10;99.50;;;;;;5116849;27;20081;-75
2022/09/20 13:52:32;;;;;;;4.55;0.88;;;19.10;98.50;;;;;;5117128;27;20043;-75
2022/09/20 13:54:58;;;;;;;5.13;1.00;;;19.30;98.80;;;;;;5113591;27;20047;-76
2022/09/20 13:57:28;;;;;;;2.88;1.10;;;19.30;98.50;;;;;;5111777;27;20098;-75
2022/09/20 13:59:55;;;;;;;4.85;1.00;;;19.30;98.90;;;;;;5101500;28;20032;-74
2022/09/20 14:02:32;;;;;;;7.43;1.05;;;19.30;98.70;;;;;;5106068;28;20049;-75
2022/09/20 14:05:00;;;;;;;5.03;0.80;;;19.50;98.80;;;;;;5091565;28;20101;-75